Olmeca — V7NB3 — position and weather

sailwx.info

Track history (hours):
 
Tides and Currents Weather Stations Pressure Air Temp Water Temp Dewpoint Dewpoint Depression Visibility Wind Speed Wind Dir Waves Ship Positions

Olmeca

Last reported at 2018-Jun-08 05:24 UTC. Time now 2018-Jun-20 15:21 UTC.
Position N 19°12' W 095°46'.
Warning: this ship's position is 12 days out of date.

Length 129 m; draft 9.5 m.

Type: Ship. MMSI: 538002937.

Date/timePositionNaut miles runAvg speedWind from/ knotsBaromVisibWave heightAir tempDewpointWater temp
2018-Jun-08 05:24N 19°12' W 095°46'410.1
2018-Jun-08 04:58N 19°12' W 095°50'510.6
2018-Jun-08 04:30N 19°12' W 095°55'510.1
2018-Jun-08 04:00N 19°12' W 096°01'4 8.8
2018-Jun-08 03:30N 19°12' W 096°05'3 4.5
2018-Jun-08 02:53N 19°13' W 096°08'0 0.0
2018-Jun-08 02:29N 19°13' W 096°08'0 0.0
2018-Jun-08 01:59N 19°13' W 096°08'0 0.0
2018-Jun-08 01:29N 19°13' W 096°08'0 0.0
2018-Jun-08 00:59N 19°13' W 096°08'0 0.0
2018-Jun-08 00:29N 19°13' W 096°08'0 0.0
2018-Jun-07 23:59N 19°13' W 096°08'0 0.0
2018-Jun-07 23:26N 19°13' W 096°08'0 0.0
2018-Jun-07 22:59N 19°13' W 096°08'0 0.0
2018-Jun-07 22:29N 19°13' W 096°08'0 0.0
2018-Jun-07 21:59N 19°13' W 096°08'0 0.0
2018-Jun-07 21:23N 19°13' W 096°08'0 0.0
2018-Jun-07 20:59N 19°13' W 096°08'0 0.1
2018-Jun-07 20:29N 19°13' W 096°08'0 0.1
2018-Jun-07 19:59N 19°13' W 096°08'0 0.0
2018-Jun-07 19:26N 19°13' W 096°08'0 0.1
2018-Jun-07 18:59N 19°13' W 096°08'0 0.1
2018-Jun-07 18:29N 19°13' W 096°08'0 0.0
2018-Jun-07 17:53N 19°13' W 096°08'0 0.0
2018-Jun-07 17:29N 19°13' W 096°08'0 0.0
2018-Jun-07 16:56N 19°13' W 096°08'0 0.0
2018-Jun-07 16:29N 19°13' W 096°08'0 0.0
2018-Jun-07 15:59N 19°13' W 096°08'0 0.0
2018-Jun-07 15:20N 19°13' W 096°08'0 0.0
2018-Jun-07 14:59N 19°13' W 096°08'0 0.0
2018-Jun-07 14:29N 19°13' W 096°08'0 0.0
2018-Jun-07 13:56N 19°13' W 096°08'0 0.0
2018-Jun-07 13:29N 19°13' W 096°08'0 0.0
2018-Jun-07 12:59N 19°13' W 096°08'0 0.0
2018-Jun-07 12:29N 19°13' W 096°08'0 0.0
2018-Jun-07 11:59N 19°13' W 096°08'0 0.0
2018-Jun-07 11:26N 19°13' W 096°08'0 0.0
2018-Jun-07 10:59N 19°13' W 096°08'0 0.0
2018-Jun-07 10:29N 19°13' W 096°08'0 0.0
2018-Jun-07 09:59N 19°13' W 096°08'0 0.0
2018-Jun-07 09:29N 19°13' W 096°08'0 0.0
2018-Jun-07 08:59N 19°13' W 096°08'0 0.0
2018-Jun-07 08:30N 19°13' W 096°08'1 1.9
2018-Jun-07 08:00N 19°12' W 096°08'4 7.8
2018-Jun-07 07:29N 19°12' W 096°03'3 5.9
2018-Jun-07 07:00N 19°13' W 096°00'3 6.9
2018-Jun-07 06:30N 19°16' W 096°00'5 9.9
2018-Jun-07 06:00N 19°21' W 096°00'510.2
2018-Jun-07 05:30N 19°26' W 095°58'3 6.0
2018-Jun-07 04:59N 19°29' W 095°57'7011.4
2018-Jun-06 22:52N 20°33' W 095°30'411.2
2018-Jun-06 22:30N 20°37' W 095°28'  
2018-Jun-04 16:53N 29°41' W 093°20'5 9.0
2018-Jun-04 16:22N 29°46' W 093°21'3 7.6
2018-Jun-04 16:00N 29°49' W 093°21'4 7.7
2018-Jun-04 15:30N 29°53' W 093°21'4 7.7
2018-Jun-04 15:00N 29°57' W 093°20'4 7.6
2018-Jun-04 14:30N 30°00' W 093°20'4 7.7
2018-Jun-04 14:00N 30°04' W 093°20'4 7.1
2018-Jun-04 13:30N 30°08' W 093°20'3 5.3
2018-Jun-04 13:00N 30°10' W 093°19'3 5.7
2018-Jun-04 12:30N 30°12' W 093°17'1 2.0
2018-Jun-04 11:59N 30°13' W 093°16'0 0.1
2018-Jun-04 11:29N 30°13' W 093°16'0 0.0
2018-Jun-04 10:59N 30°13' W 093°16'0 0.0
2018-Jun-04 10:29N 30°13' W 093°16'0 0.0
2018-Jun-04 09:59N 30°13' W 093°16'0 0.0
2018-Jun-04 09:29N 30°13' W 093°16'0 0.0
2018-Jun-04 08:59N 30°13' W 093°16'0 0.0
2018-Jun-04 08:29N 30°13' W 093°16'0 0.0
2018-Jun-04 07:59N 30°13' W 093°16'0 0.0
2018-Jun-04 07:26N 30°13' W 093°16'0 0.0
2018-Jun-04 06:59N 30°13' W 093°16'0 0.0
2018-Jun-04 06:29N 30°13' W 093°16'0 0.0
2018-Jun-04 05:53N 30°13' W 093°16'0 0.0
2018-Jun-04 05:29N 30°13' W 093°16'0 0.0
2018-Jun-04 04:59N 30°13' W 093°16'0 0.0
2018-Jun-04 04:29N 30°13' W 093°16'0 0.0
2018-Jun-04 03:59N 30°13' W 093°16'0 0.1
2018-Jun-04 03:29N 30°13' W 093°16'1 1.1
2018-Jun-04 03:00N 30°13' W 093°16'1 2.5
2018-Jun-04 02:30N 30°13' W 093°17'0 0.3
2018-Jun-04 01:59N 30°13' W 093°17'0 0.0
2018-Jun-04 01:29N 30°13' W 093°17'0 0.0
2018-Jun-04 00:56N 30°13' W 093°17'0 0.0
2018-Jun-04 00:29N 30°13' W 093°17'0 0.0
2018-Jun-03 23:59N 30°13' W 093°17'0 0.0
2018-Jun-03 23:29N 30°13' W 093°17'0 0.0
2018-Jun-03 22:59N 30°13' W 093°17'0 0.0
2018-Jun-03 22:29N 30°13' W 093°17'0 0.0
2018-Jun-03 21:59N 30°13' W 093°17'0 0.0
2018-Jun-03 21:29N 30°13' W 093°17'0 0.0
2018-Jun-03 20:59N 30°13' W 093°17'0 0.0
2018-Jun-03 20:29N 30°13' W 093°17'0 0.0
2018-Jun-03 19:59N 30°13' W 093°17'0 0.0
2018-Jun-03 19:26N 30°13' W 093°17'0 0.0
2018-Jun-03 18:59N 30°13' W 093°17'0 0.0
2018-Jun-03 18:29N 30°13' W 093°17'0 0.0
2018-Jun-03 17:59N 30°13' W 093°17'0 0.0
2018-Jun-03 17:29N 30°13' W 093°17'0 0.0
2018-Jun-03 16:56N 30°13' W 093°17'0 0.0
2018-Jun-03 16:29N 30°13' W 093°17'0 0.0
2018-Jun-03 15:59N 30°13' W 093°17'0 0.0
2018-Jun-03 15:29N 30°13' W 093°17'0 0.0
2018-Jun-03 14:59N 30°13' W 093°17'0 0.0
2018-Jun-03 14:29N 30°13' W 093°17'0 0.0
2018-Jun-03 13:59N 30°13' W 093°17'0 0.0
2018-Jun-03 13:23N 30°13' W 093°17'0 0.0
2018-Jun-03 12:59N 30°13' W 093°17'0 0.0
2018-Jun-03 12:29N 30°13' W 093°17'0 0.0
2018-Jun-03 11:59N 30°13' W 093°17'0 0.0
2018-Jun-03 11:26N 30°13' W 093°17'0 0.0
2018-Jun-03 10:59N 30°13' W 093°17'0 0.0
2018-Jun-03 10:29N 30°13' W 093°17'0 0.0
2018-Jun-03 09:59N 30°13' W 093°17'0 0.0
2018-Jun-03 09:29N 30°13' W 093°17'0 0.0
2018-Jun-03 08:59N 30°13' W 093°17'0 0.0
2018-Jun-03 08:29N 30°13' W 093°17'0 0.0
2018-Jun-03 07:59N 30°13' W 093°17'0 0.0
2018-Jun-03 07:29N 30°13' W 093°17'0 0.0
2018-Jun-03 06:56N 30°13' W 093°17'0 0.0
2018-Jun-03 06:29N 30°13' W 093°17'0 0.0
2018-Jun-03 05:59N 30°13' W 093°17'0 0.0
2018-Jun-03 05:29N 30°13' W 093°17'0 0.0
2018-Jun-03 04:59N 30°13' W 093°17'0 0.0
2018-Jun-03 04:26N 30°13' W 093°17'0 0.0
2018-Jun-03 03:59N 30°13' W 093°17'0 0.0
2018-Jun-03 03:29N 30°13' W 093°17'0 0.0
2018-Jun-03 02:59N 30°13' W 093°17'0 0.0
2018-Jun-03 02:29N 30°13' W 093°17'0 0.0
2018-Jun-03 01:59N 30°13' W 093°17'0 0.0
2018-Jun-03 01:23N 30°13' W 093°17'0 0.0
2018-Jun-03 00:59N 30°13' W 093°17'0 0.0
2018-Jun-03 00:29N 30°13' W 093°17'0 0.0
2018-Jun-02 23:59N 30°13' W 093°17'0 0.0
2018-Jun-02 23:29N 30°13' W 093°17'0 0.0
2018-Jun-02 22:59N 30°13' W 093°17'0 0.0
2018-Jun-02 22:29N 30°13' W 093°17'0 0.0
2018-Jun-02 21:59N 30°13' W 093°17'0 0.0
2018-Jun-02 21:29N 30°13' W 093°17'0 0.0
2018-Jun-02 20:56N 30°13' W 093°17'0 0.0
2018-Jun-02 20:29N 30°13' W 093°17'0 0.0
2018-Jun-02 20:00N 30°13' W 093°17'1 1.1
2018-Jun-02 19:30N 30°13' W 093°17'3 5.1
2018-Jun-02 19:00N 30°11' W 093°19'4 7.1
2018-Jun-02 18:31N 30°08' W 093°20'4 8.8
2018-Jun-02 18:00N 30°03' W 093°20'4 8.3
2018-Jun-02 17:30N 29°59' W 093°20'510.0
2018-Jun-02 17:00N 29°54' W 093°21'510.3
2018-Jun-02 16:29N 29°49' W 093°21'510.8
2018-Jun-02 16:00N 29°43' W 093°20'78 5.5
2018-Jun-02 01:59N 29°21' W 094°46'1111.0
2018-Jun-02 00:57N 29°30' W 094°52'410.1
2018-Jun-02 00:30N 29°34' W 094°55'510.1
2018-Jun-02 00:00N 29°38' W 094°58'4 9.0
2018-Jun-01 23:30N 29°42' W 095°01'3 5.9
2018-Jun-01 23:00N 29°44' W 095°03'2 4.5
2018-Jun-01 22:29N 29°45' W 095°06'0 0.8
2018-Jun-01 21:59N 29°45' W 095°06'0 0.0
2018-Jun-01 02:23N 29°45' W 095°06'0 0.6
2018-Jun-01 01:55N 29°45' W 095°06'2 4.4
2018-Jun-01 01:30N 29°45' W 095°04'3 6.7
2018-Jun-01 01:00N 29°43' W 095°01'4 8.8
2018-Jun-01 00:30N 29°39' W 094°58'510.3
2018-Jun-01 00:00N 29°34' W 094°56'510.1
2018-May-31 23:30N 29°30' W 094°52'510.5
2018-May-31 23:00N 29°25' W 094°50'510.3
2018-May-31 22:30N 29°21' W 094°47'610.7
2018-May-31 21:59N 29°20' W 094°41'611.0
2018-May-31 21:28N 29°17' W 094°35'2 1.3
2018-May-31 19:57N 29°15' W 094°37'0 0.0
2018-May-31 18:18N 29°15' W 094°37'0 0.0
2018-May-31 15:57N 29°15' W 094°37'0 0.0
2018-May-31 15:27N 29°15' W 094°37'0 0.0
2018-May-31 13:03N 29°15' W 094°37'0 0.0
2018-May-31 11:54N 29°15' W 094°37'0 0.0
2018-May-31 11:18N 29°15' W 094°37'0 0.0
2018-May-31 10:03N 29°15' W 094°37'0 0.0
2018-May-31 09:51N 29°15' W 094°37'0 0.0
2018-May-31 08:51N 29°15' W 094°37'0 0.0
2018-May-31 06:42N 29°15' W 094°37'0 0.0
2018-May-31 06:24N 29°15' W 094°37'0 0.0
2018-May-31 06:00N 29°15' W 094°37'0 0.0
2018-May-31 05:24N 29°15' W 094°37'0 0.0
2018-May-31 05:00N 29°15' W 094°37'0 0.0
2018-May-31 04:30N 29°15' W 094°37'0 0.0
2018-May-31 03:00N 29°15' W 094°37'0 0.0
2018-May-31 02:30N 29°15' W 094°37'0 0.0
2018-May-31 02:00N 29°15' W 094°37'0 0.0
2018-May-31 01:30N 29°15' W 094°37'0 0.0
2018-May-31 00:57N 29°15' W 094°37'0 0.0
2018-May-31 00:30N 29°15' W 094°37'0 0.0
2018-May-30 23:33N 29°15' W 094°37'0 0.1
2018-May-30 23:27N 29°15' W 094°37'0 0.0
2018-May-30 23:00N 29°15' W 094°37'0 0.0
2018-May-30 22:21N 29°15' W 094°37'0 0.0
2018-May-30 21:57N 29°15' W 094°37'0 0.0
2018-May-30 21:27N 29°15' W 094°37'0 0.0
2018-May-30 20:57N 29°15' W 094°37'0 0.0
2018-May-30 20:30N 29°15' W 094°37'0 0.0
2018-May-30 20:00N 29°15' W 094°37'0 0.0
2018-May-30 19:30N 29°15' W 094°37'0 0.0
2018-May-30 18:51N 29°15' W 094°37'0 0.0
2018-May-30 18:30N 29°15' W 094°37'0 0.0
2018-May-30 17:36N 29°15' W 094°37'0 0.0
2018-May-30 17:12N 29°15' W 094°37'0 0.0
2018-May-30 16:57N 29°15' W 094°37'0 0.0
2018-May-30 15:57N 29°15' W 094°37'0 0.0
2018-May-30 15:18N 29°15' W 094°37'0 0.0
2018-May-30 14:51N 29°15' W 094°37'0 0.0
2018-May-30 14:27N 29°15' W 094°37'0 0.0
2018-May-30 14:00N 29°15' W 094°37'0 0.0
2018-May-30 13:30N 29°15' W 094°37'0 0.0
2018-May-30 12:21N 29°15' W 094°37'0 0.0
2018-May-30 11:57N 29°15' W 094°37'0 0.0
2018-May-30 11:27N 29°15' W 094°37'0 0.0
2018-May-30 10:18N 29°15' W 094°37'0 0.0
2018-May-30 09:57N 29°15' W 094°37'0 0.0
2018-May-30 09:27N 29°15' W 094°37'0 0.0
2018-May-30 09:00N 29°15' W 094°37'0 0.0
2018-May-30 08:24N 29°15' W 094°37'0 0.0
2018-May-30 07:54N 29°15' W 094°37'0 0.0
2018-May-30 07:30N 29°15' W 094°37'0 0.0
2018-May-30 06:54N 29°15' W 094°37'0 0.0
2018-May-30 06:24N 29°15' W 094°37'0 0.0
2018-May-30 05:54N 29°15' W 094°37'0 0.0
2018-May-30 05:24N 29°15' W 094°37'0 0.0
2018-May-30 04:54N 29°15' W 094°37'0 0.0
2018-May-30 04:30N 29°15' W 094°37'0 0.0
2018-May-30 04:00N 29°15' W 094°37'0 0.0
2018-May-30 03:30N 29°15' W 094°37'0 0.0
2018-May-30 02:54N 29°15' W 094°37'0 0.0
2018-May-30 02:27N 29°15' W 094°37'0 0.0
2018-May-30 01:54N 29°15' W 094°37'0 0.0
2018-May-30 01:27N 29°15' W 094°37'0 0.0
2018-May-30 00:57N 29°15' W 094°37'0 0.0
2018-May-30 00:30N 29°15' W 094°37'0 0.0
2018-May-30 00:00N 29°15' W 094°37'0 0.0
2018-May-29 23:24N 29°15' W 094°37'0 0.0
2018-May-29 23:00N 29°15' W 094°37'0 0.0
2018-May-29 22:30N 29°15' W 094°37'0 0.0
2018-May-29 22:00N 29°15' W 094°37'0 0.0
2018-May-29 21:27N 29°15' W 094°37'0 0.0
2018-May-29 21:00N 29°15' W 094°37'0 0.0
2018-May-29 20:18N 29°15' W 094°37'0 0.0
2018-May-29 20:00N 29°15' W 094°37'0 0.0
2018-May-29 19:15N 29°15' W 094°37'0 0.0
2018-May-29 19:00N 29°15' W 094°37'0 0.0
2018-May-29 18:24N 29°15' W 094°37'0 0.0
2018-May-29 18:00N 29°15' W 094°37'0 0.0
2018-May-29 17:30N 29°15' W 094°37'0 0.0
2018-May-29 16:06N 29°15' W 094°37'0 0.3
2018-May-29 16:00N 29°15' W 094°37'1 2.4
2018-May-29 15:27N 29°17' W 094°37'5 9.9
2018-May-29 14:57N 29°20' W 094°41'510.9
2018-May-29 14:30N 29°21' W 094°47'510.5
2018-May-29 14:00N 29°25' W 094°50'510.6
2018-May-29 13:30N 29°30' W 094°52'510.9
2018-May-29 13:01N 29°35' W 094°56'5 9.0
2018-May-29 12:30N 29°37' W 095°00'1 1.8
2018-May-29 12:00N 29°37' W 095°01'0 0.0
2018-May-29 11:30N 29°37' W 095°01'0 0.0
2018-May-29 11:00N 29°37' W 095°01'0 0.0
2018-May-29 10:30N 29°37' W 095°01'0 0.0
2018-May-29 10:00N 29°37' W 095°01'0 0.0
2018-May-29 09:30N 29°37' W 095°01'0 0.0
2018-May-29 09:00N 29°37' W 095°01'0 0.0
2018-May-29 08:30N 29°37' W 095°01'0 0.0
2018-May-29 08:00N 29°37' W 095°01'0 0.0
2018-May-29 07:30N 29°37' W 095°01'0 0.0
2018-May-29 07:00N 29°37' W 095°01'0 0.0
2018-May-29 06:30N 29°37' W 095°01'0 0.0
2018-May-29 06:00N 29°37' W 095°01'0 0.0
2018-May-29 05:30N 29°37' W 095°01'  
Track history (hours):
 
Tides and Currents Weather Stations Pressure Air Temp Water Temp Dewpoint Dewpoint Depression Visibility Wind Speed Wind Dir Waves Ship Positions

Olmeca

Last reported at 2018-Jun-08 05:24 UTC. Time now 2018-Jun-20 15:21 UTC.
Position N 19°12' W 095°46'.
Warning: this ship's position is 12 days out of date.

Length 129 m; draft 9.5 m.

Type: Ship. MMSI: 538002937.

Date/timePositionNaut miles runAvg speedWind from/ knotsBaromVisibWave heightAir tempDewpointWater temp
2018-Jun-08 05:24N 19°12' W 095°46'410.1
2018-Jun-08 04:58N 19°12' W 095°50'510.6
2018-Jun-08 04:30N 19°12' W 095°55'510.1
2018-Jun-08 04:00N 19°12' W 096°01'4 8.8
2018-Jun-08 03:30N 19°12' W 096°05'3 4.5
2018-Jun-08 02:53N 19°13' W 096°08'0 0.0
2018-Jun-08 02:29N 19°13' W 096°08'0 0.0
2018-Jun-08 01:59N 19°13' W 096°08'0 0.0
2018-Jun-08 01:29N 19°13' W 096°08'0 0.0
2018-Jun-08 00:59N 19°13' W 096°08'0 0.0
2018-Jun-08 00:29N 19°13' W 096°08'0 0.0
2018-Jun-07 23:59N 19°13' W 096°08'0 0.0
2018-Jun-07 23:26N 19°13' W 096°08'0 0.0
2018-Jun-07 22:59N 19°13' W 096°08'0 0.0
2018-Jun-07 22:29N 19°13' W 096°08'0 0.0
2018-Jun-07 21:59N 19°13' W 096°08'0 0.0
2018-Jun-07 21:23N 19°13' W 096°08'0 0.0
2018-Jun-07 20:59N 19°13' W 096°08'0 0.1
2018-Jun-07 20:29N 19°13' W 096°08'0 0.1
2018-Jun-07 19:59N 19°13' W 096°08'0 0.0
2018-Jun-07 19:26N 19°13' W 096°08'0 0.1
2018-Jun-07 18:59N 19°13' W 096°08'0 0.1
2018-Jun-07 18:29N 19°13' W 096°08'0 0.0
2018-Jun-07 17:53N 19°13' W 096°08'0 0.0
2018-Jun-07 17:29N 19°13' W 096°08'0 0.0
2018-Jun-07 16:56N 19°13' W 096°08'0 0.0
2018-Jun-07 16:29N 19°13' W 096°08'0 0.0
2018-Jun-07 15:59N 19°13' W 096°08'0 0.0
2018-Jun-07 15:20N 19°13' W 096°08'0 0.0
2018-Jun-07 14:59N 19°13' W 096°08'0 0.0
2018-Jun-07 14:29N 19°13' W 096°08'0 0.0
2018-Jun-07 13:56N 19°13' W 096°08'0 0.0
2018-Jun-07 13:29N 19°13' W 096°08'0 0.0
2018-Jun-07 12:59N 19°13' W 096°08'0 0.0
2018-Jun-07 12:29N 19°13' W 096°08'0 0.0
2018-Jun-07 11:59N 19°13' W 096°08'0 0.0
2018-Jun-07 11:26N 19°13' W 096°08'0 0.0
2018-Jun-07 10:59N 19°13' W 096°08'0 0.0
2018-Jun-07 10:29N 19°13' W 096°08'0 0.0
2018-Jun-07 09:59N 19°13' W 096°08'0 0.0
2018-Jun-07 09:29N 19°13' W 096°08'0 0.0
2018-Jun-07 08:59N 19°13' W 096°08'0 0.0
2018-Jun-07 08:30N 19°13' W 096°08'1 1.9
2018-Jun-07 08:00N 19°12' W 096°08'4 7.8
2018-Jun-07 07:29N 19°12' W 096°03'3 5.9
2018-Jun-07 07:00N 19°13' W 096°00'3 6.9
2018-Jun-07 06:30N 19°16' W 096°00'5 9.9
2018-Jun-07 06:00N 19°21' W 096°00'510.2
2018-Jun-07 05:30N 19°26' W 095°58'3 6.0
2018-Jun-07 04:59N 19°29' W 095°57'7011.4
2018-Jun-06 22:52N 20°33' W 095°30'411.2
2018-Jun-06 22:30N 20°37' W 095°28'  
2018-Jun-04 16:53N 29°41' W 093°20'5 9.0
2018-Jun-04 16:22N 29°46' W 093°21'3 7.6
2018-Jun-04 16:00N 29°49' W 093°21'4 7.7
2018-Jun-04 15:30N 29°53' W 093°21'4 7.7
2018-Jun-04 15:00N 29°57' W 093°20'4 7.6
2018-Jun-04 14:30N 30°00' W 093°20'4 7.7
2018-Jun-04 14:00N 30°04' W 093°20'4 7.1
2018-Jun-04 13:30N 30°08' W 093°20'3 5.3
2018-Jun-04 13:00N 30°10' W 093°19'3 5.7
2018-Jun-04 12:30N 30°12' W 093°17'1 2.0
2018-Jun-04 11:59N 30°13' W 093°16'0 0.1
2018-Jun-04 11:29N 30°13' W 093°16'0 0.0
2018-Jun-04 10:59N 30°13' W 093°16'0 0.0
2018-Jun-04 10:29N 30°13' W 093°16'0 0.0
2018-Jun-04 09:59N 30°13' W 093°16'0 0.0
2018-Jun-04 09:29N 30°13' W 093°16'0 0.0
2018-Jun-04 08:59N 30°13' W 093°16'0 0.0
2018-Jun-04 08:29N 30°13' W 093°16'0 0.0
2018-Jun-04 07:59N 30°13' W 093°16'0 0.0
2018-Jun-04 07:26N 30°13' W 093°16'0 0.0
2018-Jun-04 06:59N 30°13' W 093°16'0 0.0
2018-Jun-04 06:29N 30°13' W 093°16'0 0.0
2018-Jun-04 05:53N 30°13' W 093°16'0 0.0
2018-Jun-04 05:29N 30°13' W 093°16'0 0.0
2018-Jun-04 04:59N 30°13' W 093°16'0 0.0
2018-Jun-04 04:29N 30°13' W 093°16'0 0.0
2018-Jun-04 03:59N 30°13' W 093°16'0 0.1
2018-Jun-04 03:29N 30°13' W 093°16'1 1.1
2018-Jun-04 03:00N 30°13' W 093°16'1 2.5
2018-Jun-04 02:30N 30°13' W 093°17'0 0.3
2018-Jun-04 01:59N 30°13' W 093°17'0 0.0
2018-Jun-04 01:29N 30°13' W 093°17'0 0.0
2018-Jun-04 00:56N 30°13' W 093°17'0 0.0
2018-Jun-04 00:29N 30°13' W 093°17'0 0.0
2018-Jun-03 23:59N 30°13' W 093°17'0 0.0
2018-Jun-03 23:29N 30°13' W 093°17'0 0.0
2018-Jun-03 22:59N 30°13' W 093°17'0 0.0
2018-Jun-03 22:29N 30°13' W 093°17'0 0.0
2018-Jun-03 21:59N 30°13' W 093°17'0 0.0
2018-Jun-03 21:29N 30°13' W 093°17'0 0.0
2018-Jun-03 20:59N 30°13' W 093°17'0 0.0
2018-Jun-03 20:29N 30°13' W 093°17'0 0.0
2018-Jun-03 19:59N 30°13' W 093°17'0 0.0
2018-Jun-03 19:26N 30°13' W 093°17'0 0.0
2018-Jun-03 18:59N 30°13' W 093°17'0 0.0
2018-Jun-03 18:29N 30°13' W 093°17'0 0.0
2018-Jun-03 17:59N 30°13' W 093°17'0 0.0
2018-Jun-03 17:29N 30°13' W 093°17'0 0.0
2018-Jun-03 16:56N 30°13' W 093°17'0 0.0
2018-Jun-03 16:29N 30°13' W 093°17'0 0.0
2018-Jun-03 15:59N 30°13' W 093°17'0 0.0
2018-Jun-03 15:29N 30°13' W 093°17'0 0.0
2018-Jun-03 14:59N 30°13' W 093°17'0 0.0
2018-Jun-03 14:29N 30°13' W 093°17'0 0.0
2018-Jun-03 13:59N 30°13' W 093°17'0 0.0
2018-Jun-03 13:23N 30°13' W 093°17'0 0.0
2018-Jun-03 12:59N 30°13' W 093°17'0 0.0
2018-Jun-03 12:29N 30°13' W 093°17'0 0.0
2018-Jun-03 11:59N 30°13' W 093°17'0 0.0
2018-Jun-03 11:26N 30°13' W 093°17'0 0.0
2018-Jun-03 10:59N 30°13' W 093°17'0 0.0
2018-Jun-03 10:29N 30°13' W 093°17'0 0.0
2018-Jun-03 09:59N 30°13' W 093°17'0 0.0
2018-Jun-03 09:29N 30°13' W 093°17'0 0.0
2018-Jun-03 08:59N 30°13' W 093°17'0 0.0
2018-Jun-03 08:29N 30°13' W 093°17'0 0.0
2018-Jun-03 07:59N 30°13' W 093°17'0 0.0
2018-Jun-03 07:29N 30°13' W 093°17'0 0.0
2018-Jun-03 06:56N 30°13' W 093°17'0 0.0
2018-Jun-03 06:29N 30°13' W 093°17'0 0.0
2018-Jun-03 05:59N 30°13' W 093°17'0 0.0
2018-Jun-03 05:29N 30°13' W 093°17'0 0.0
2018-Jun-03 04:59N 30°13' W 093°17'0 0.0
2018-Jun-03 04:26N 30°13' W 093°17'0 0.0
2018-Jun-03 03:59N 30°13' W 093°17'0 0.0
2018-Jun-03 03:29N 30°13' W 093°17'0 0.0
2018-Jun-03 02:59N 30°13' W 093°17'0 0.0
2018-Jun-03 02:29N 30°13' W 093°17'0 0.0
2018-Jun-03 01:59N 30°13' W 093°17'0 0.0
2018-Jun-03 01:23N 30°13' W 093°17'0 0.0
2018-Jun-03 00:59N 30°13' W 093°17'0 0.0
2018-Jun-03 00:29N 30°13' W 093°17'0 0.0
2018-Jun-02 23:59N 30°13' W 093°17'0 0.0
2018-Jun-02 23:29N 30°13' W 093°17'0 0.0
2018-Jun-02 22:59N 30°13' W 093°17'0 0.0
2018-Jun-02 22:29N 30°13' W 093°17'0 0.0
2018-Jun-02 21:59N 30°13' W 093°17'0 0.0
2018-Jun-02 21:29N 30°13' W 093°17'0 0.0
2018-Jun-02 20:56N 30°13' W 093°17'0 0.0
2018-Jun-02 20:29N 30°13' W 093°17'0 0.0
2018-Jun-02 20:00N 30°13' W 093°17'1 1.1
2018-Jun-02 19:30N 30°13' W 093°17'3 5.1
2018-Jun-02 19:00N 30°11' W 093°19'4 7.1
2018-Jun-02 18:31N 30°08' W 093°20'4 8.8
2018-Jun-02 18:00N 30°03' W 093°20'4 8.3
2018-Jun-02 17:30N 29°59' W 093°20'510.0
2018-Jun-02 17:00N 29°54' W 093°21'510.3
2018-Jun-02 16:29N 29°49' W 093°21'510.8
2018-Jun-02 16:00N 29°43' W 093°20'78 5.5
2018-Jun-02 01:59N 29°21' W 094°46'1111.0
2018-Jun-02 00:57N 29°30' W 094°52'410.1
2018-Jun-02 00:30N 29°34' W 094°55'510.1
2018-Jun-02 00:00N 29°38' W 094°58'4 9.0
2018-Jun-01 23:30N 29°42' W 095°01'3 5.9
2018-Jun-01 23:00N 29°44' W 095°03'2 4.5
2018-Jun-01 22:29N 29°45' W 095°06'0 0.8
2018-Jun-01 21:59N 29°45' W 095°06'0 0.0
2018-Jun-01 02:23N 29°45' W 095°06'0 0.6
2018-Jun-01 01:55N 29°45' W 095°06'2 4.4
2018-Jun-01 01:30N 29°45' W 095°04'3 6.7
2018-Jun-01 01:00N 29°43' W 095°01'4 8.8
2018-Jun-01 00:30N 29°39' W 094°58'510.3
2018-Jun-01 00:00N 29°34' W 094°56'510.1
2018-May-31 23:30N 29°30' W 094°52'510.5
2018-May-31 23:00N 29°25' W 094°50'510.3
2018-May-31 22:30N 29°21' W 094°47'610.7
2018-May-31 21:59N 29°20' W 094°41'611.0
2018-May-31 21:28N 29°17' W 094°35'2 1.3
2018-May-31 19:57N 29°15' W 094°37'0 0.0
2018-May-31 18:18N 29°15' W 094°37'0 0.0
2018-May-31 15:57N 29°15' W 094°37'0 0.0
2018-May-31 15:27N 29°15' W 094°37'0 0.0
2018-May-31 13:03N 29°15' W 094°37'0 0.0
2018-May-31 11:54N 29°15' W 094°37'0 0.0
2018-May-31 11:18N 29°15' W 094°37'0 0.0
2018-May-31 10:03N 29°15' W 094°37'0 0.0
2018-May-31 09:51N 29°15' W 094°37'0 0.0
2018-May-31 08:51N 29°15' W 094°37'0 0.0
2018-May-31 06:42N 29°15' W 094°37'0 0.0
2018-May-31 06:24N 29°15' W 094°37'0 0.0
2018-May-31 06:00N 29°15' W 094°37'0 0.0
2018-May-31 05:24N 29°15' W 094°37'0 0.0
2018-May-31 05:00N 29°15' W 094°37'0 0.0
2018-May-31 04:30N 29°15' W 094°37'0 0.0
2018-May-31 03:00N 29°15' W 094°37'0 0.0
2018-May-31 02:30N 29°15' W 094°37'0 0.0
2018-May-31 02:00N 29°15' W 094°37'0 0.0
2018-May-31 01:30N 29°15' W 094°37'0 0.0
2018-May-31 00:57N 29°15' W 094°37'0 0.0
2018-May-31 00:30N 29°15' W 094°37'0 0.0
2018-May-30 23:33N 29°15' W 094°37'0 0.1
2018-May-30 23:27N 29°15' W 094°37'0 0.0
2018-May-30 23:00N 29°15' W 094°37'0 0.0
2018-May-30 22:21N 29°15' W 094°37'0 0.0
2018-May-30 21:57N 29°15' W 094°37'0 0.0
2018-May-30 21:27N 29°15' W 094°37'0 0.0
2018-May-30 20:57N 29°15' W 094°37'0 0.0
2018-May-30 20:30N 29°15' W 094°37'0 0.0
2018-May-30 20:00N 29°15' W 094°37'0 0.0
2018-May-30 19:30N 29°15' W 094°37'0 0.0
2018-May-30 18:51N 29°15' W 094°37'0 0.0
2018-May-30 18:30N 29°15' W 094°37'0 0.0
2018-May-30 17:36N 29°15' W 094°37'0 0.0
2018-May-30 17:12N 29°15' W 094°37'0 0.0
2018-May-30 16:57N 29°15' W 094°37'0 0.0
2018-May-30 15:57N 29°15' W 094°37'0 0.0
2018-May-30 15:18N 29°15' W 094°37'0 0.0
2018-May-30 14:51N 29°15' W 094°37'0 0.0
2018-May-30 14:27N 29°15' W 094°37'0 0.0
2018-May-30 14:00N 29°15' W 094°37'0 0.0
2018-May-30 13:30N 29°15' W 094°37'0 0.0
2018-May-30 12:21N 29°15' W 094°37'0 0.0
2018-May-30 11:57N 29°15' W 094°37'0 0.0
2018-May-30 11:27N 29°15' W 094°37'0 0.0
2018-May-30 10:18N 29°15' W 094°37'0 0.0
2018-May-30 09:57N 29°15' W 094°37'0 0.0
2018-May-30 09:27N 29°15' W 094°37'0 0.0
2018-May-30 09:00N 29°15' W 094°37'0 0.0
2018-May-30 08:24N 29°15' W 094°37'0 0.0
2018-May-30 07:54N 29°15' W 094°37'0 0.0
2018-May-30 07:30N 29°15' W 094°37'0 0.0
2018-May-30 06:54N 29°15' W 094°37'0 0.0
2018-May-30 06:24N 29°15' W 094°37'0 0.0
2018-May-30 05:54N 29°15' W 094°37'0 0.0
2018-May-30 05:24N 29°15' W 094°37'0 0.0
2018-May-30 04:54N 29°15' W 094°37'0 0.0
2018-May-30 04:30N 29°15' W 094°37'0 0.0
2018-May-30 04:00N 29°15' W 094°37'0 0.0
2018-May-30 03:30N 29°15' W 094°37'0 0.0
2018-May-30 02:54N 29°15' W 094°37'0 0.0
2018-May-30 02:27N 29°15' W 094°37'0 0.0
2018-May-30 01:54N 29°15' W 094°37'0 0.0
2018-May-30 01:27N 29°15' W 094°37'0 0.0
2018-May-30 00:57N 29°15' W 094°37'0 0.0
2018-May-30 00:30N 29°15' W 094°37'0 0.0
2018-May-30 00:00N 29°15' W 094°37'0 0.0
2018-May-29 23:24N 29°15' W 094°37'0 0.0
2018-May-29 23:00N 29°15' W 094°37'0 0.0
2018-May-29 22:30N 29°15' W 094°37'0 0.0
2018-May-29 22:00N 29°15' W 094°37'0 0.0
2018-May-29 21:27N 29°15' W 094°37'0 0.0
2018-May-29 21:00N 29°15' W 094°37'0 0.0
2018-May-29 20:18N 29°15' W 094°37'0 0.0
2018-May-29 20:00N 29°15' W 094°37'0 0.0
2018-May-29 19:15N 29°15' W 094°37'0 0.0
2018-May-29 19:00N 29°15' W 094°37'0 0.0
2018-May-29 18:24N 29°15' W 094°37'0 0.0
2018-May-29 18:00N 29°15' W 094°37'0 0.0
2018-May-29 17:30N 29°15' W 094°37'0 0.0
2018-May-29 16:06N 29°15' W 094°37'0 0.3
2018-May-29 16:00N 29°15' W 094°37'1 2.4
2018-May-29 15:27N 29°17' W 094°37'5 9.9
2018-May-29 14:57N 29°20' W 094°41'510.9
2018-May-29 14:30N 29°21' W 094°47'510.5
2018-May-29 14:00N 29°25' W 094°50'510.6
2018-May-29 13:30N 29°30' W 094°52'510.9
2018-May-29 13:01N 29°35' W 094°56'5 9.0
2018-May-29 12:30N 29°37' W 095°00'1 1.8
2018-May-29 12:00N 29°37' W 095°01'0 0.0
2018-May-29 11:30N 29°37' W 095°01'0 0.0
2018-May-29 11:00N 29°37' W 095°01'0 0.0
2018-May-29 10:30N 29°37' W 095°01'0 0.0
2018-May-29 10:00N 29°37' W 095°01'0 0.0
2018-May-29 09:30N 29°37' W 095°01'0 0.0
2018-May-29 09:00N 29°37' W 095°01'0 0.0
2018-May-29 08:30N 29°37' W 095°01'0 0.0
2018-May-29 08:00N 29°37' W 095°01'0 0.0
2018-May-29 07:30N 29°37' W 095°01'0 0.0
2018-May-29 07:00N 29°37' W 095°01'0 0.0
2018-May-29 06:30N 29°37' W 095°01'0 0.0
2018-May-29 06:00N 29°37' W 095°01'0 0.0
2018-May-29 05:30N 29°37' W 095°01'  

Dump ship's entire track history